sensor_id;sensor_type;location;lat;lon;timestamp;temperature;humidity
11142;DHT22;5625;50.122;19.864;2023-11-19T00:00:28;3.40;9.10
11142;DHT22;5625;50.122;19.864;2023-11-19T00:02:56;3.40;7.10
11142;DHT22;5625;50.122;19.864;2023-11-19T00:05:25;3.50;4.10
11142;DHT22;5625;50.122;19.864;2023-11-19T00:07:54;3.40;3.90
11142;DHT22;5625;50.122;19.864;2023-11-19T00:10:23;3.50;6.60
11142;DHT22;5625;50.122;19.864;2023-11-19T00:12:52;3.40;8.20
11142;DHT22;5625;50.122;19.864;2023-11-19T00:15:20;3.50;9.00
11142;DHT22;5625;50.122;19.864;2023-11-19T00:17:51;3.50;9.70
11142;DHT22;5625;50.122;19.864;2023-11-19T00:20:20;3.50;8.70
11142;DHT22;5625;50.122;19.864;2023-11-19T00:22:51;3.50;9.50
11142;DHT22;5625;50.122;19.864;2023-11-19T00:25:20;3.50;9.50
11142;DHT22;5625;50.122;19.864;2023-11-19T00:27:49;3.50;11.20
11142;DHT22;5625;50.122;19.864;2023-11-19T00:30:20;3.50;12.00
11142;DHT22;5625;50.122;19.864;2023-11-19T00:32:49;3.50;13.40
11142;DHT22;5625;50.122;19.864;2023-11-19T00:35:17;3.50;14.70
11142;DHT22;5625;50.122;19.864;2023-11-19T00:37:45;3.50;15.30
11142;DHT22;5625;50.122;19.864;2023-11-19T00:40:16;3.50;17.60
11142;DHT22;5625;50.122;19.864;2023-11-19T00:42:45;3.50;16.80
11142;DHT22;5625;50.122;19.864;2023-11-19T00:45:14;3.50;13.40
11142;DHT22;5625;50.122;19.864;2023-11-19T00:47:43;3.40;6.80
11142;DHT22;5625;50.122;19.864;2023-11-19T00:50:11;3.40;7.70
11142;DHT22;5625;50.122;19.864;2023-11-19T00:52:40;3.50;10.10
11142;DHT22;5625;50.122;19.864;2023-11-19T00:55:09;3.40;8.60
11142;DHT22;5625;50.122;19.864;2023-11-19T00:57:40;3.40;13.90
11142;DHT22;5625;50.122;19.864;2023-11-19T01:00:09;3.40;16.20
11142;DHT22;5625;50.122;19.864;2023-11-19T01:02:46;3.40;17.90
11142;DHT22;5625;50.122;19.864;2023-11-19T01:05:18;3.40;16.20
11142;DHT22;5625;50.122;19.864;2023-11-19T01:07:52;3.40;19.80
11142;DHT22;5625;50.122;19.864;2023-11-19T01:10:22;3.40;22.00
11142;DHT22;5625;50.122;19.864;2023-11-19T01:12:52;3.40;20.70
11142;DHT22;5625;50.122;19.864;2023-11-19T01:15:21;3.40;18.90
11142;DHT22;5625;50.122;19.864;2023-11-19T01:17:52;3.40;21.30
11142;DHT22;5625;50.122;19.864;2023-11-19T01:20:21;3.40;18.30
11142;DHT22;5625;50.122;19.864;2023-11-19T01:22:49;3.40;18.70
11142;DHT22;5625;50.122;19.864;2023-11-19T01:25:18;3.40;19.00
11142;DHT22;5625;50.122;19.864;2023-11-19T01:27:47;3.40;19.00
11142;DHT22;5625;50.122;19.864;2023-11-19T01:30:19;3.40;20.00
11142;DHT22;5625;50.122;19.864;2023-11-19T01:32:47;3.40;21.30
11142;DHT22;5625;50.122;19.864;2023-11-19T01:35:16;3.40;21.20
11142;DHT22;5625;50.122;19.864;2023-11-19T01:37:44;3.40;19.50
11142;DHT22;5625;50.122;19.864;2023-11-19T01:40:12;3.40;18.60
11142;DHT22;5625;50.122;19.864;2023-11-19T01:42:41;3.40;17.80
11142;DHT22;5625;50.122;19.864;2023-11-19T01:45:10;3.40;17.90
11142;DHT22;5625;50.122;19.864;2023-11-19T01:47:50;3.40;17.00
11142;DHT22;5625;50.122;19.864;2023-11-19T01:50:20;3.40;16.50
11142;DHT22;5625;50.122;19.864;2023-11-19T01:52:48;3.40;19.50
11142;DHT22;5625;50.122;19.864;2023-11-19T01:55:17;3.40;21.20
11142;DHT22;5625;50.122;19.864;2023-11-19T01:57:46;3.40;21.70
11142;DHT22;5625;50.122;19.864;2023-11-19T02:00:15;3.40;23.80
11142;DHT22;5625;50.122;19.864;2023-11-19T02:02:44;3.40;25.20
11142;DHT22;5625;50.122;19.864;2023-11-19T02:05:15;3.40;27.30
11142;DHT22;5625;50.122;19.864;2023-11-19T02:07:44;3.40;28.00
11142;DHT22;5625;50.122;19.864;2023-11-19T02:10:13;3.40;29.90
11142;DHT22;5625;50.122;19.864;2023-11-19T02:12:44;3.40;29.00
11142;DHT22;5625;50.122;19.864;2023-11-19T02:15:12;3.40;28.90
11142;DHT22;5625;50.122;19.864;2023-11-19T02:17:40;3.40;28.40
11142;DHT22;5625;50.122;19.864;2023-11-19T02:20:10;3.40;26.90
11142;DHT22;5625;50.122;19.864;2023-11-19T02:22:43;3.40;26.30
11142;DHT22;5625;50.122;19.864;2023-11-19T02:25:17;3.40;24.80
11142;DHT22;5625;50.122;19.864;2023-11-19T02:27:53;3.40;24.70
11142;DHT22;5625;50.122;19.864;2023-11-19T02:30:23;3.40;21.30
11142;DHT22;5625;50.122;19.864;2023-11-19T02:32:54;3.40;9.60
11142;DHT22;5625;50.122;19.864;2023-11-19T02:35:24;3.40;4.80
11142;DHT22;5625;50.122;19.864;2023-11-19T02:37:53;3.40;7.60
11142;DHT22;5625;50.122;19.864;2023-11-19T02:40:22;3.40;7.10
11142;DHT22;5625;50.122;19.864;2023-11-19T02:42:52;3.30;1.90
11142;DHT22;5625;50.122;19.864;2023-11-19T02:45:22;3.30;1.00
11142;DHT22;5625;50.122;19.864;2023-11-19T02:47:51;3.30;1.00
11142;DHT22;5625;50.122;19.864;2023-11-19T02:50:20;3.30;1.00
11142;DHT22;5625;50.122;19.864;2023-11-19T02:52:54;3.30;1.00
11142;DHT22;5625;50.122;19.864;2023-11-19T02:55:24;3.30;1.00
11142;DHT22;5625;50.122;19.864;2023-11-19T02:57:56;3.30;1.00
11142;DHT22;5625;50.122;19.864;2023-11-19T03:00:26;3.30;1.00
11142;DHT22;5625;50.122;19.864;2023-11-19T03:03:02;3.30;1.00
11142;DHT22;5625;50.122;19.864;2023-11-19T03:05:45;3.30;1.00
11142;DHT22;5625;50.122;19.864;2023-11-19T03:08:14;3.20;1.00
11142;DHT22;5625;50.122;19.864;2023-11-19T03:10:45;3.20;1.00
11142;DHT22;5625;50.122;19.864;2023-11-19T03:13:15;3.10;1.00
11142;DHT22;5625;50.122;19.864;2023-11-19T03:15:44;3.10;1.00
11142;DHT22;5625;50.122;19.864;2023-11-19T03:18:12;3.10;3.70
11142;DHT22;5625;50.122;19.864;2023-11-19T03:20:40;3.10;6.80
11142;DHT22;5625;50.122;19.864;2023-11-19T03:23:08;3.10;10.60
11142;DHT22;5625;50.122;19.864;2023-11-19T03:25:37;3.10;13.60
11142;DHT22;5625;50.122;19.864;2023-11-19T03:28:05;3.10;17.40
11142;DHT22;5625;50.122;19.864;2023-11-19T03:30:35;3.10;22.40
11142;DHT22;5625;50.122;19.864;2023-11-19T03:33:03;3.10;24.70
11142;DHT22;5625;50.122;19.864;2023-11-19T03:35:31;3.10;28.40
11142;DHT22;5625;50.122;19.864;2023-11-19T03:38:00;3.00;30.50
11142;DHT22;5625;50.122;19.864;2023-11-19T03:40:29;3.00;31.20
11142;DHT22;5625;50.122;19.864;2023-11-19T03:42:58;3.00;28.70
11142;DHT22;5625;50.122;19.864;2023-11-19T03:45:26;3.00;30.70
11142;DHT22;5625;50.122;19.864;2023-11-19T03:47:55;3.00;32.10
11142;DHT22;5625;50.122;19.864;2023-11-19T03:50:24;3.00;28.80
11142;DHT22;5625;50.122;19.864;2023-11-19T03:52:52;3.00;30.10
11142;DHT22;5625;50.122;19.864;2023-11-19T03:55:20;3.00;30.60
11142;DHT22;5625;50.122;19.864;2023-11-19T03:57:49;3.00;35.80
11142;DHT22;5625;50.122;19.864;2023-11-19T04:00:17;3.00;40.10
11142;DHT22;5625;50.122;19.864;2023-11-19T04:02:48;3.00;43.50
11142;DHT22;5625;50.122;19.864;2023-11-19T04:05:17;3.00;44.30
11142;DHT22;5625;50.122;19.864;2023-11-19T04:07:46;3.10;47.20
11142;DHT22;5625;50.122;19.864;2023-11-19T04:10:15;3.00;48.70
11142;DHT22;5625;50.122;19.864;2023-11-19T04:12:45;3.00;52.20
11142;DHT22;5625;50.122;19.864;2023-11-19T04:15:14;3.00;54.20
11142;DHT22;5625;50.122;19.864;2023-11-19T04:17:43;3.00;54.70
11142;DHT22;5625;50.122;19.864;2023-11-19T04:20:11;3.00;55.70
11142;DHT22;5625;50.122;19.864;2023-11-19T04:22:43;3.00;55.60
11142;DHT22;5625;50.122;19.864;2023-11-19T04:25:11;3.00;57.80
11142;DHT22;5625;50.122;19.864;2023-11-19T04:27:41;3.00;56.60
11142;DHT22;5625;50.122;19.864;2023-11-19T04:30:09;3.00;58.80
11142;DHT22;5625;50.122;19.864;2023-11-19T04:32:38;2.90;63.80
11142;DHT22;5625;50.122;19.864;2023-11-19T04:35:08;2.90;67.90
11142;DHT22;5625;50.122;19.864;2023-11-19T04:37:36;2.90;77.40
11142;DHT22;5625;50.122;19.864;2023-11-19T04:40:08;2.80;81.40
11142;DHT22;5625;50.122;19.864;2023-11-19T04:42:36;2.90;85.40
11142;DHT22;5625;50.122;19.864;2023-11-19T04:45:07;2.90;88.10
11142;DHT22;5625;50.122;19.864;2023-11-19T04:47:37;2.90;88.80
11142;DHT22;5625;50.122;19.864;2023-11-19T04:50:06;2.90;89.90
11142;DHT22;5625;50.122;19.864;2023-11-19T04:52:37;2.90;91.00
11142;DHT22;5625;50.122;19.864;2023-11-19T04:55:08;2.90;92.40
11142;DHT22;5625;50.122;19.864;2023-11-19T04:57:39;2.90;92.40
11142;DHT22;5625;50.122;19.864;2023-11-19T05:00:09;2.90;94.60
11142;DHT22;5625;50.122;19.864;2023-11-19T05:02:41;2.90;95.60
11142;DHT22;5625;50.122;19.864;2023-11-19T05:05:09;2.90;96.50
11142;DHT22;5625;50.122;19.864;2023-11-19T05:07:38;2.90;97.70
11142;DHT22;5625;50.122;19.864;2023-11-19T05:10:09;2.90;97.60
11142;DHT22;5625;50.122;19.864;2023-11-19T05:12:37;2.90;97.00
11142;DHT22;5625;50.122;19.864;2023-11-19T05:15:06;2.90;96.80
11142;DHT22;5625;50.122;19.864;2023-11-19T05:17:34;2.90;96.40
11142;DHT22;5625;50.122;19.864;2023-11-19T05:20:05;2.90;96.80
11142;DHT22;5625;50.122;19.864;2023-11-19T05:22:40;2.90;96.80
11142;DHT22;5625;50.122;19.864;2023-11-19T05:25:10;2.90;97.10
11142;DHT22;5625;50.122;19.864;2023-11-19T05:27:38;2.90;98.30
11142;DHT22;5625;50.122;19.864;2023-11-19T05:30:07;2.90;99.50
11142;DHT22;5625;50.122;19.864;2023-11-19T05:32:38;2.90;99.90
11142;DHT22;5625;50.122;19.864;2023-11-19T05:35:07;2.90;99.70
11142;DHT22;5625;50.122;19.864;2023-11-19T05:37:36;2.90;98.80
11142;DHT22;5625;50.122;19.864;2023-11-19T05:40:07;2.90;99.00
11142;DHT22;5625;50.122;19.864;2023-11-19T05:42:43;2.90;99.80
11142;DHT22;5625;50.122;19.864;2023-11-19T05:45:12;2.90;99.90
11142;DHT22;5625;50.122;19.864;2023-11-19T05:47:41;2.90;99.60
11142;DHT22;5625;50.122;19.864;2023-11-19T05:50:10;2.90;99.80
11142;DHT22;5625;50.122;19.864;2023-11-19T05:52:38;2.90;99.10
11142;DHT22;5625;50.122;19.864;2023-11-19T05:55:07;2.90;98.70
11142;DHT22;5625;50.122;19.864;2023-11-19T05:57:37;2.90;99.10
11142;DHT22;5625;50.122;19.864;2023-11-19T06:00:11;2.80;99.90
11142;DHT22;5625;50.122;19.864;2023-11-19T06:02:40;2.80;99.90
11142;DHT22;5625;50.122;19.864;2023-11-19T06:05:08;2.70;99.40
11142;DHT22;5625;50.122;19.864;2023-11-19T06:07:37;2.70;99.60
11142;DHT22;5625;50.122;19.864;2023-11-19T06:10:06;2.70;99.80
11142;DHT22;5625;50.122;19.864;2023-11-19T06:12:37;2.70;99.80
11142;DHT22;5625;50.122;19.864;2023-11-19T06:15:09;2.70;99.90
11142;DHT22;5625;50.122;19.864;2023-11-19T06:17:38;2.70;99.40
11142;DHT22;5625;50.122;19.864;2023-11-19T06:20:07;2.60;99.80
11142;DHT22;5625;50.122;19.864;2023-11-19T06:22:39;2.70;99.90
11142;DHT22;5625;50.122;19.864;2023-11-19T06:25:09;2.70;99.90
11142;DHT22;5625;50.122;19.864;2023-11-19T06:27:38;2.70;99.90
11142;DHT22;5625;50.122;19.864;2023-11-19T06:30:07;2.60;99.90
11142;DHT22;5625;50.122;19.864;2023-11-19T06:32:36;2.60;99.90
11142;DHT22;5625;50.122;19.864;2023-11-19T06:35:05;2.60;99.90
11142;DHT22;5625;50.122;19.864;2023-11-19T06:37:34;2.70;99.90
11142;DHT22;5625;50.122;19.864;2023-11-19T06:40:03;2.70;99.90
11142;DHT22;5625;50.122;19.864;2023-11-19T06:42:32;2.70;99.90
11142;DHT22;5625;50.122;19.864;2023-11-19T06:45:01;2.70;99.90
11142;DHT22;5625;50.122;19.864;2023-11-19T06:47:29;2.70;99.90
11142;DHT22;5625;50.122;19.864;2023-11-19T06:49:59;2.70;99.90
11142;DHT22;5625;50.122;19.864;2023-11-19T06:52:27;2.70;99.90
11142;DHT22;5625;50.122;19.864;2023-11-19T06:54:56;2.60;99.90
11142;DHT22;5625;50.122;19.864;2023-11-19T06:57:27;2.60;99.90
11142;DHT22;5625;50.122;19.864;2023-11-19T06:59:57;2.60;99.90
11142;DHT22;5625;50.122;19.864;2023-11-19T07:02:25;2.60;99.90
11142;DHT22;5625;50.122;19.864;2023-11-19T07:04:54;2.60;99.90
11142;DHT22;5625;50.122;19.864;2023-11-19T07:07:24;2.60;99.90
11142;DHT22;5625;50.122;19.864;2023-11-19T07:09:54;2.70;99.90
11142;DHT22;5625;50.122;19.864;2023-11-19T07:12:23;2.70;99.90
11142;DHT22;5625;50.122;19.864;2023-11-19T07:14:53;2.70;99.90
11142;DHT22;5625;50.122;19.864;2023-11-19T07:17:22;2.70;99.90
11142;DHT22;5625;50.122;19.864;2023-11-19T07:19:52;2.70;99.90
11142;DHT22;5625;50.122;19.864;2023-11-19T07:22:20;2.70;99.90
11142;DHT22;5625;50.122;19.864;2023-11-19T07:24:49;2.70;99.90
11142;DHT22;5625;50.122;19.864;2023-11-19T07:27:17;2.80;99.90
11142;DHT22;5625;50.122;19.864;2023-11-19T07:29:46;2.80;99.90
11142;DHT22;5625;50.122;19.864;2023-11-19T07:32:15;2.80;99.90
11142;DHT22;5625;50.122;19.864;2023-11-19T07:34:43;2.80;99.90
11142;DHT22;5625;50.122;19.864;2023-11-19T07:37:11;2.80;99.90
11142;DHT22;5625;50.122;19.864;2023-11-19T07:39:39;2.80;99.90
11142;DHT22;5625;50.122;19.864;2023-11-19T07:42:10;2.80;99.90
11142;DHT22;5625;50.122;19.864;2023-11-19T07:44:38;2.90;99.90
11142;DHT22;5625;50.122;19.864;2023-11-19T07:47:07;2.90;99.90
11142;DHT22;5625;50.122;19.864;2023-11-19T07:49:35;2.90;99.90
11142;DHT22;5625;50.122;19.864;2023-11-19T07:52:04;3.00;99.90
11142;DHT22;5625;50.122;19.864;2023-11-19T07:54:47;3.10;99.90
11142;DHT22;5625;50.122;19.864;2023-11-19T07:57:17;3.20;99.90
11142;DHT22;5625;50.122;19.864;2023-11-19T07:59:46;3.20;98.90
11142;DHT22;5625;50.122;19.864;2023-11-19T08:02:14;3.20;94.80
11142;DHT22;5625;50.122;19.864;2023-11-19T08:04:43;3.20;91.20
11142;DHT22;5625;50.122;19.864;2023-11-19T08:07:13;3.20;90.10
11142;DHT22;5625;50.122;19.864;2023-11-19T08:09:41;3.20;91.10
11142;DHT22;5625;50.122;19.864;2023-11-19T08:12:09;3.30;89.60
11142;DHT22;5625;50.122;19.864;2023-11-19T08:14:39;3.30;89.00
11142;DHT22;5625;50.122;19.864;2023-11-19T08:17:07;3.30;80.80
11142;DHT22;5625;50.122;19.864;2023-11-19T08:19:36;3.30;79.60
11142;DHT22;5625;50.122;19.864;2023-11-19T08:22:04;3.30;70.90
11142;DHT22;5625;50.122;19.864;2023-11-19T08:24:32;3.30;67.80
11142;DHT22;5625;50.122;19.864;2023-11-19T08:27:00;3.40;67.20
11142;DHT22;5625;50.122;19.864;2023-11-19T08:29:29;3.40;62.10
11142;DHT22;5625;50.122;19.864;2023-11-19T08:32:00;3.40;62.50
11142;DHT22;5625;50.122;19.864;2023-11-19T08:34:29;3.40;61.50
11142;DHT22;5625;50.122;19.864;2023-11-19T08:36:57;3.50;61.70
11142;DHT22;5625;50.122;19.864;2023-11-19T08:39:26;3.50;53.30
11142;DHT22;5625;50.122;19.864;2023-11-19T08:41:54;3.60;47.70
11142;DHT22;5625;50.122;19.864;2023-11-19T08:44:23;3.60;31.90
11142;DHT22;5625;50.122;19.864;2023-11-19T08:46:52;3.60;17.50
11142;DHT22;5625;50.122;19.864;2023-11-19T08:49:22;3.70;19.10
11142;DHT22;5625;50.122;19.864;2023-11-19T08:51:52;3.70;15.30
11142;DHT22;5625;50.122;19.864;2023-11-19T08:54:20;3.60;11.80
11142;DHT22;5625;50.122;19.864;2023-11-19T08:56:50;3.70;10.90
11142;DHT22;5625;50.122;19.864;2023-11-19T08:59:21;3.70;1.30
11142;DHT22;5625;50.122;19.864;2023-11-19T09:01:49;3.60;1.00
11142;DHT22;5625;50.122;19.864;2023-11-19T09:04:17;3.70;1.00
11142;DHT22;5625;50.122;19.864;2023-11-19T09:06:53;3.70;1.00
11142;DHT22;5625;50.122;19.864;2023-11-19T09:09:22;3.80;1.00
11142;DHT22;5625;50.122;19.864;2023-11-19T09:11:56;3.80;1.00
11142;DHT22;5625;50.122;19.864;2023-11-19T09:14:24;3.90;1.00
11142;DHT22;5625;50.122;19.864;2023-11-19T09:16:53;3.90;1.00
11142;DHT22;5625;50.122;19.864;2023-11-19T09:19:21;3.90;1.00
11142;DHT22;5625;50.122;19.864;2023-11-19T09:21:50;3.90;1.00
11142;DHT22;5625;50.122;19.864;2023-11-19T09:24:19;3.90;1.00
11142;DHT22;5625;50.122;19.864;2023-11-19T09:26:48;3.90;1.00
11142;DHT22;5625;50.122;19.864;2023-11-19T09:29:16;3.90;1.00
11142;DHT22;5625;50.122;19.864;2023-11-19T09:31:44;3.90;1.00
11142;DHT22;5625;50.122;19.864;2023-11-19T09:34:15;4.00;1.00
11142;DHT22;5625;50.122;19.864;2023-11-19T09:36:43;4.00;1.00
11142;DHT22;5625;50.122;19.864;2023-11-19T09:39:12;4.00;1.00
11142;DHT22;5625;50.122;19.864;2023-11-19T09:41:43;4.00;1.00
11142;DHT22;5625;50.122;19.864;2023-11-19T09:44:14;3.90;1.00
11142;DHT22;5625;50.122;19.864;2023-11-19T09:46:45;4.00;1.00
11142;DHT22;5625;50.122;19.864;2023-11-19T09:49:19;4.10;1.00
11142;DHT22;5625;50.122;19.864;2023-11-19T09:52:02;4.10;1.00
11142;DHT22;5625;50.122;19.864;2023-11-19T09:54:31;4.30;1.00
11142;DHT22;5625;50.122;19.864;2023-11-19T09:57:02;4.70;99.90
11142;DHT22;5625;50.122;19.864;2023-11-19T09:59:31;5.00;99.90
11142;DHT22;5625;50.122;19.864;2023-11-19T10:02:00;5.00;99.90
11142;DHT22;5625;50.122;19.864;2023-11-19T10:04:31;4.90;99.90
11142;DHT22;5625;50.122;19.864;2023-11-19T10:07:00;4.90;1.00
11142;DHT22;5625;50.122;19.864;2023-11-19T10:09:29;4.90;99.90
11142;DHT22;5625;50.122;19.864;2023-11-19T10:11:57;4.80;99.90
11142;DHT22;5625;50.122;19.864;2023-11-19T10:14:28;4.80;99.90
11142;DHT22;5625;50.122;19.864;2023-11-19T10:17:01;4.90;31.00
11142;DHT22;5625;50.122;19.864;2023-11-19T10:19:32;4.90;1.00
11142;DHT22;5625;50.122;19.864;2023-11-19T10:22:04;4.90;1.00
11142;DHT22;5625;50.122;19.864;2023-11-19T10:24:33;4.90;99.90
11142;DHT22;5625;50.122;19.864;2023-11-19T10:29:51;4.90;1.00
11142;DHT22;5625;50.122;19.864;2023-11-19T10:32:20;4.90;99.90
11142;DHT22;5625;50.122;19.864;2023-11-19T10:35:07;4.90;99.90
11142;DHT22;5625;50.122;19.864;2023-11-19T10:37:35;4.90;1.00
11142;DHT22;5625;50.122;19.864;2023-11-19T10:40:05;5.00;1.00
11142;DHT22;5625;50.122;19.864;2023-11-19T10:42:37;4.90;1.00
11142;DHT22;5625;50.122;19.864;2023-11-19T10:45:22;4.90;1.00
11142;DHT22;5625;50.122;19.864;2023-11-19T10:47:51;4.80;1.00
11142;DHT22;5625;50.122;19.864;2023-11-19T10:50:20;4.80;1.00
11142;DHT22;5625;50.122;19.864;2023-11-19T10:52:52;4.80;99.90
11142;DHT22;5625;50.122;19.864;2023-11-19T10:55:26;4.80;28.90
11142;DHT22;5625;50.122;19.864;2023-11-19T10:57:59;4.90;44.10
11142;DHT22;5625;50.122;19.864;2023-11-19T11:00:37;4.90;15.90
11142;DHT22;5625;50.122;19.864;2023-11-19T11:03:11;4.90;1.00
11142;DHT22;5625;50.122;19.864;2023-11-19T11:05:43;4.80;1.00
11142;DHT22;5625;50.122;19.864;2023-11-19T11:08:14;4.80;1.00
11142;DHT22;5625;50.122;19.864;2023-11-19T11:10:44;4.80;1.00
11142;DHT22;5625;50.122;19.864;2023-11-19T11:13:16;4.80;1.00
11142;DHT22;5625;50.122;19.864;2023-11-19T11:15:46;4.90;1.00
11142;DHT22;5625;50.122;19.864;2023-11-19T11:18:17;4.90;87.90
11142;DHT22;5625;50.122;19.864;2023-11-19T11:20:46;4.90;16.30
11142;DHT22;5625;50.122;19.864;2023-11-19T11:27:02;5.00;1.00
11142;DHT22;5625;50.122;19.864;2023-11-19T11:29:41;4.90;1.00
11142;DHT22;5625;50.122;19.864;2023-11-19T11:32:35;4.90;1.00
11142;DHT22;5625;50.122;19.864;2023-11-19T11:35:24;4.90;1.00
11142;DHT22;5625;50.122;19.864;2023-11-19T11:38:02;4.90;1.00
11142;DHT22;5625;50.122;19.864;2023-11-19T11:40:34;5.00;4.40
11142;DHT22;5625;50.122;19.864;2023-11-19T11:43:03;5.10;1.00
11142;DHT22;5625;50.122;19.864;2023-11-19T11:45:36;5.20;99.90
11142;DHT22;5625;50.122;19.864;2023-11-19T11:48:12;5.30;99.90
11142;DHT22;5625;50.122;19.864;2023-11-19T11:50:49;5.30;1.00
11142;DHT22;5625;50.122;19.864;2023-11-19T11:53:18;5.30;99.90
11142;DHT22;5625;50.122;19.864;2023-11-19T11:55:54;5.30;99.90
11142;DHT22;5625;50.122;19.864;2023-11-19T11:58:26;5.30;99.90
11142;DHT22;5625;50.122;19.864;2023-11-19T12:00:57;5.20;99.90
11142;DHT22;5625;50.122;19.864;2023-11-19T12:03:29;5.10;99.90
11142;DHT22;5625;50.122;19.864;2023-11-19T12:05:58;5.00;99.90
11142;DHT22;5625;50.122;19.864;2023-11-19T12:08:28;4.90;1.00
11142;DHT22;5625;50.122;19.864;2023-11-19T12:10:58;4.80;1.00
11142;DHT22;5625;50.122;19.864;2023-11-19T12:13:57;4.80;1.00
11142;DHT22;5625;50.122;19.864;2023-11-19T12:16:29;4.70;1.00
11142;DHT22;5625;50.122;19.864;2023-11-19T12:19:04;4.70;1.00
11142;DHT22;5625;50.122;19.864;2023-11-19T12:21:34;4.70;1.00
11142;DHT22;5625;50.122;19.864;2023-11-19T12:24:05;4.70;1.00
11142;DHT22;5625;50.122;19.864;2023-11-19T12:26:36;4.60;1.00
11142;DHT22;5625;50.122;19.864;2023-11-19T12:29:06;4.60;1.00
11142;DHT22;5625;50.122;19.864;2023-11-19T12:31:36;4.60;1.00
11142;DHT22;5625;50.122;19.864;2023-11-19T12:34:09;4.60;2.70
11142;DHT22;5625;50.122;19.864;2023-11-19T12:36:40;4.60;10.70
11142;DHT22;5625;50.122;19.864;2023-11-19T12:39:12;4.50;10.10
11142;DHT22;5625;50.122;19.864;2023-11-19T12:41:51;4.50;10.80
11142;DHT22;5625;50.122;19.864;2023-11-19T12:44:20;4.50;8.90
11142;DHT22;5625;50.122;19.864;2023-11-19T12:47:01;4.50;13.90
11142;DHT22;5625;50.122;19.864;2023-11-19T12:49:31;4.50;16.20
11142;DHT22;5625;50.122;19.864;2023-11-19T12:51:59;4.40;14.00
11142;DHT22;5625;50.122;19.864;2023-11-19T12:54:35;4.50;15.60
11142;DHT22;5625;50.122;19.864;2023-11-19T12:57:05;4.50;25.40
11142;DHT22;5625;50.122;19.864;2023-11-19T12:59:34;4.50;27.00
11142;DHT22;5625;50.122;19.864;2023-11-19T13:02:02;4.50;26.10
11142;DHT22;5625;50.122;19.864;2023-11-19T13:04:34;4.50;27.50
11142;DHT22;5625;50.122;19.864;2023-11-19T13:07:03;4.50;32.70
11142;DHT22;5625;50.122;19.864;2023-11-19T13:09:33;4.50;35.10
11142;DHT22;5625;50.122;19.864;2023-11-19T13:12:12;4.50;40.20
11142;DHT22;5625;50.122;19.864;2023-11-19T13:14:41;4.50;44.80
11142;DHT22;5625;50.122;19.864;2023-11-19T13:17:13;4.50;45.30
11142;DHT22;5625;50.122;19.864;2023-11-19T13:19:43;4.40;55.60
11142;DHT22;5625;50.122;19.864;2023-11-19T13:22:14;4.30;56.70
11142;DHT22;5625;50.122;19.864;2023-11-19T13:24:42;4.30;66.00
11142;DHT22;5625;50.122;19.864;2023-11-19T13:27:11;4.20;73.10
11142;DHT22;5625;50.122;19.864;2023-11-19T13:29:39;4.20;84.30
11142;DHT22;5625;50.122;19.864;2023-11-19T13:32:07;4.30;90.60
11142;DHT22;5625;50.122;19.864;2023-11-19T13:34:36;4.20;90.50
11142;DHT22;5625;50.122;19.864;2023-11-19T13:37:05;4.20;91.90
11142;DHT22;5625;50.122;19.864;2023-11-19T13:39:34;4.20;92.80
11142;DHT22;5625;50.122;19.864;2023-11-19T13:42:03;4.20;94.40
11142;DHT22;5625;50.122;19.864;2023-11-19T13:44:34;4.20;94.60
11142;DHT22;5625;50.122;19.864;2023-11-19T13:47:02;4.30;95.80
11142;DHT22;5625;50.122;19.864;2023-11-19T13:49:31;4.30;96.80
11142;DHT22;5625;50.122;19.864;2023-11-19T13:52:00;4.30;97.40
11142;DHT22;5625;50.122;19.864;2023-11-19T13:54:29;4.30;98.40
11142;DHT22;5625;50.122;19.864;2023-11-19T13:56:58;4.30;98.80
11142;DHT22;5625;50.122;19.864;2023-11-19T13:59:27;4.30;99.20
11142;DHT22;5625;50.122;19.864;2023-11-19T14:01:55;4.30;99.90
11142;DHT22;5625;50.122;19.864;2023-11-19T14:04:24;4.30;99.90
11142;DHT22;5625;50.122;19.864;2023-11-19T14:06:52;4.30;99.90
11142;DHT22;5625;50.122;19.864;2023-11-19T14:09:22;4.30;99.90
11142;DHT22;5625;50.122;19.864;2023-11-19T14:11:51;4.30;99.90
11142;DHT22;5625;50.122;19.864;2023-11-19T14:14:20;4.30;99.90
11142;DHT22;5625;50.122;19.864;2023-11-19T14:16:48;4.30;99.90
11142;DHT22;5625;50.122;19.864;2023-11-19T14:19:16;4.30;99.90
11142;DHT22;5625;50.122;19.864;2023-11-19T14:21:44;4.30;99.90
11142;DHT22;5625;50.122;19.864;2023-11-19T14:24:14;4.30;99.90
11142;DHT22;5625;50.122;19.864;2023-11-19T14:26:45;4.30;99.90
11142;DHT22;5625;50.122;19.864;2023-11-19T14:29:15;4.30;99.90
11142;DHT22;5625;50.122;19.864;2023-11-19T14:31:43;4.30;99.90
11142;DHT22;5625;50.122;19.864;2023-11-19T14:34:11;4.30;99.90
11142;DHT22;5625;50.122;19.864;2023-11-19T14:36:40;4.30;99.90
11142;DHT22;5625;50.122;19.864;2023-11-19T14:39:08;4.30;99.90
11142;DHT22;5625;50.122;19.864;2023-11-19T14:41:37;4.30;99.90
11142;DHT22;5625;50.122;19.864;2023-11-19T14:44:06;4.30;99.90
11142;DHT22;5625;50.122;19.864;2023-11-19T14:46:37;4.30;99.90
11142;DHT22;5625;50.122;19.864;2023-11-19T14:49:05;4.30;99.90
11142;DHT22;5625;50.122;19.864;2023-11-19T14:51:35;4.20;99.90
11142;DHT22;5625;50.122;19.864;2023-11-19T14:54:05;4.30;99.90
11142;DHT22;5625;50.122;19.864;2023-11-19T14:56:33;4.20;99.90
11142;DHT22;5625;50.122;19.864;2023-11-19T14:59:01;4.20;99.90
11142;DHT22;5625;50.122;19.864;2023-11-19T15:01:30;4.20;99.90
11142;DHT22;5625;50.122;19.864;2023-11-19T15:04:12;4.20;99.90
11142;DHT22;5625;50.122;19.864;2023-11-19T15:06:40;4.20;99.90
11142;DHT22;5625;50.122;19.864;2023-11-19T15:09:09;4.20;99.90
11142;DHT22;5625;50.122;19.864;2023-11-19T15:11:43;4.20;99.90
11142;DHT22;5625;50.122;19.864;2023-11-19T15:14:12;4.20;99.90
11142;DHT22;5625;50.122;19.864;2023-11-19T15:16:44;4.20;99.90
11142;DHT22;5625;50.122;19.864;2023-11-19T15:19:14;4.20;99.90
11142;DHT22;5625;50.122;19.864;2023-11-19T15:21:42;4.20;99.90
11142;DHT22;5625;50.122;19.864;2023-11-19T15:24:10;4.20;99.90
11142;DHT22;5625;50.122;19.864;2023-11-19T15:26:39;4.20;99.90
11142;DHT22;5625;50.122;19.864;2023-11-19T15:29:07;4.20;99.90
11142;DHT22;5625;50.122;19.864;2023-11-19T15:31:36;4.10;99.90
11142;DHT22;5625;50.122;19.864;2023-11-19T15:34:05;4.10;99.90
11142;DHT22;5625;50.122;19.864;2023-11-19T15:36:35;4.10;99.90
11142;DHT22;5625;50.122;19.864;2023-11-19T15:39:03;4.10;99.90
11142;DHT22;5625;50.122;19.864;2023-11-19T15:41:32;4.20;99.90
11142;DHT22;5625;50.122;19.864;2023-11-19T15:44:02;4.20;99.90
11142;DHT22;5625;50.122;19.864;2023-11-19T15:46:31;4.20;99.90
11142;DHT22;5625;50.122;19.864;2023-11-19T15:48:59;4.20;99.90
11142;DHT22;5625;50.122;19.864;2023-11-19T15:51:27;4.20;99.90
11142;DHT22;5625;50.122;19.864;2023-11-19T15:54:03;4.20;99.90
11142;DHT22;5625;50.122;19.864;2023-11-19T15:56:32;4.20;99.90
11142;DHT22;5625;50.122;19.864;2023-11-19T15:59:00;4.20;99.90
11142;DHT22;5625;50.122;19.864;2023-11-19T16:01:28;4.20;99.90
11142;DHT22;5625;50.122;19.864;2023-11-19T16:03:57;4.20;99.90
11142;DHT22;5625;50.122;19.864;2023-11-19T16:06:26;4.30;99.90
11142;DHT22;5625;50.122;19.864;2023-11-19T16:08:55;4.30;99.90
11142;DHT22;5625;50.122;19.864;2023-11-19T16:11:25;4.30;99.90
11142;DHT22;5625;50.122;19.864;2023-11-19T16:13:52;4.30;99.90